Time;durP1;ratioP1;P1;durP2;ratioP2;P2;SDS_P1;SDS_P2;PMS_P1;PMS_P2;Temp;Humidity;BMP_temperature;BMP_pressure;BME280_temperature;BME280_humidity;BME280_pressure;Samples;Min_cycle;Max_cycle;Signal;HPM_P1;HPM_P2
2023/12/25 00:02:05;;;;;;;7.55;1.67;;;16.50;71.80;17.70;100251.00;;;;5071748;28;20229;-77
2023/12/25 00:04:32;;;;;;;7.25;1.38;;;16.40;71.70;17.70;100222.00;;;;5080472;28;20264;-77
2023/12/25 00:06:59;;;;;;;5.72;1.77;;;16.50;72.50;17.70;100226.00;;;;5070697;28;20206;-77
2023/12/25 00:09:28;;;;;;;6.97;1.88;;;16.40;71.70;17.70;100220.00;;;;5088695;28;20199;-77
2023/12/25 00:11:56;;;;;;;7.95;1.98;;;16.40;71.70;17.70;100198.00;;;;5091456;28;20198;-77
2023/12/25 00:14:24;;;;;;;7.05;1.77;;;16.50;71.70;17.70;100208.00;;;;5085589;28;20679;-76
2023/12/25 00:16:51;;;;;;;5.82;1.10;;;16.50;71.70;17.70;100219.00;;;;5070878;28;20599;-77
2023/12/25 00:19:19;;;;;;;5.45;1.30;;;16.40;71.60;17.70;100220.00;;;;5091685;28;20198;-77
2023/12/25 00:21:46;;;;;;;3.42;1.00;;;16.40;71.60;17.70;100223.00;;;;5076394;28;20222;-77
2023/12/25 00:24:13;;;;;;;6.07;1.33;;;16.40;71.60;17.70;100225.00;;;;5071596;28;20241;-77
2023/12/25 00:26:42;;;;;;;6.65;1.23;;;16.40;71.60;17.70;100241.00;;;;5076024;28;20225;-77
2023/12/25 00:29:10;;;;;;;6.80;2.00;;;16.40;71.70;17.70;100245.00;;;;5087054;28;20678;-77
2023/12/25 00:31:37;;;;;;;8.20;1.35;;;16.40;71.60;17.70;100234.00;;;;5071274;28;20219;-77
2023/12/25 00:34:04;;;;;;;5.55;1.02;;;16.40;71.60;17.60;100221.00;;;;5069666;28;20644;-77
2023/12/25 00:36:32;;;;;;;4.93;0.77;;;16.40;71.50;17.50;100224.00;;;;5070695;28;20202;-77
2023/12/25 00:38:59;;;;;;;8.10;1.48;;;16.40;71.50;17.50;100236.00;;;;5075979;28;20206;-77
2023/12/25 00:41:30;;;;;;;3.28;0.93;;;16.30;71.40;17.40;100238.00;;;;5090487;28;20645;-77
2023/12/25 00:43:59;;;;;;;5.18;1.13;;;16.30;71.40;17.40;100264.00;;;;5090447;28;20210;-76
2023/12/25 00:46:27;;;;;;;6.60;1.30;;;16.20;71.60;17.30;100273.00;;;;5081082;28;20203;-77
2023/12/25 00:48:54;;;;;;;5.85;1.33;;;16.20;71.60;17.30;100258.00;;;;5070458;28;20250;-77
2023/12/25 00:51:22;;;;;;;5.18;1.30;;;16.20;71.80;17.30;100266.00;;;;5085991;28;20209;-77
2023/12/25 00:53:50;;;;;;;5.15;1.60;;;16.20;72.00;17.20;100252.00;;;;5080068;28;20858;-77
2023/12/25 00:56:17;;;;;;;6.00;1.23;;;16.10;72.00;17.20;100258.00;;;;5080842;28;20721;-77
2023/12/25 00:58:45;;;;;;;6.45;1.35;;;16.10;72.80;17.20;100266.00;;;;5070114;28;20230;-77
2023/12/25 01:01:14;;;;;;;7.15;1.50;;;16.00;72.00;17.20;100244.00;;;;5075656;28;20199;-76
2023/12/25 01:03:42;;;;;;;7.28;1.52;;;16.00;72.20;17.20;100267.00;;;;5070122;28;20223;-77
2023/12/25 01:06:09;;;;;;;5.50;1.15;;;16.00;72.20;17.20;100269.00;;;;5071123;28;20226;-77
2023/12/25 01:08:36;;;;;;;6.20;1.52;;;15.90;72.20;17.20;100267.00;;;;5078251;28;20309;-77
2023/12/25 01:11:05;;;;;;;6.93;1.17;;;16.00;72.40;17.20;100264.00;;;;5077045;28;20317;-77
2023/12/25 01:13:33;;;;;;;5.47;1.50;;;15.90;72.40;17.20;100253.00;;;;5080726;28;20208;-77
2023/12/25 01:16:00;;;;;;;5.43;1.48;;;15.90;72.50;17.20;100257.00;;;;5070095;28;20205;-77
2023/12/25 01:18:28;;;;;;;5.88;1.73;;;15.90;72.50;17.20;100265.00;;;;5069092;28;20206;-76
2023/12/25 01:20:55;;;;;;;6.25;1.50;;;15.90;72.50;17.20;100250.00;;;;5069680;28;20210;-77
2023/12/25 01:23:22;;;;;;;8.23;1.65;;;15.90;72.50;17.20;100258.00;;;;5069955;28;20227;-77
2023/12/25 01:25:50;;;;;;;10.48;1.70;;;15.90;72.60;17.10;100270.00;;;;5069304;28;20286;-76
2023/12/25 01:28:17;;;;;;;4.72;1.33;;;15.90;72.60;17.10;100257.00;;;;5070399;28;20206;-76
2023/12/25 01:30:45;;;;;;;6.63;2.00;;;15.80;72.60;17.10;100260.00;;;;5080611;28;20256;-76
2023/12/25 01:33:12;;;;;;;7.40;1.30;;;15.90;72.50;17.10;100263.00;;;;5089641;28;20732;-76
2023/12/25 01:35:41;;;;;;;5.90;0.98;;;15.90;72.50;17.10;100270.00;;;;5088667;28;20198;-76
2023/12/25 01:38:09;;;;;;;4.05;0.98;;;15.80;72.30;17.10;100262.00;;;;5089320;28;20228;-76
2023/12/25 01:40:39;;;;;;;3.67;0.80;;;15.80;72.20;17.10;100280.00;;;;5089400;28;20653;-76
2023/12/25 01:43:07;;;;;;;2.58;0.47;;;15.80;72.00;17.10;100276.00;;;;5088518;28;20722;-77
2023/12/25 01:45:34;;;;;;;2.10;0.40;;;15.80;71.90;17.00;100281.00;;;;5088998;28;20234;-77
2023/12/25 01:48:02;;;;;;;3.17;0.40;;;15.80;71.50;16.90;100337.00;;;;5082476;28;20191;-77
2023/12/25 01:50:31;;;;;;;0.90;0.30;;;15.70;71.00;16.80;100293.00;;;;5072598;28;20203;-76
2023/12/25 01:53:00;;;;;;;1.50;0.52;;;15.70;71.00;16.70;100298.00;;;;5073960;28;20546;-76
2023/12/25 01:55:28;;;;;;;2.25;0.52;;;15.60;71.10;16.60;100308.00;;;;5089650;28;20257;-76
2023/12/25 01:57:55;;;;;;;2.50;0.50;;;15.60;71.10;16.50;100294.00;;;;5089196;28;20190;-76
2023/12/25 02:00:23;;;;;;;3.10;0.70;;;15.50;71.10;16.40;100295.00;;;;5089435;28;20552;-76
2023/12/25 02:02:51;;;;;;;3.88;0.77;;;15.40;71.10;16.30;100279.00;;;;5080935;28;20638;-76
2023/12/25 02:05:18;;;;;;;0.98;0.38;;;15.40;71.10;16.20;100282.00;;;;5081457;28;20219;-76
2023/12/25 02:07:48;;;;;;;3.22;0.40;;;15.30;71.30;16.10;100279.00;;;;5082427;28;20219;-76
2023/12/25 02:10:29;;;;;;;0.60;0.30;;;15.20;71.30;16.00;100278.00;;;;5083564;28;20616;-76
2023/12/25 02:12:59;;;;;;;2.17;0.60;;;15.20;71.80;16.10;100275.00;;;;5068289;28;20199;-76
2023/12/25 02:15:28;;;;;;;5.88;1.48;;;15.10;71.80;16.10;100285.00;;;;5072479;28;20191;-76
2023/12/25 02:17:56;;;;;;;5.65;1.38;;;15.10;72.20;16.10;100292.00;;;;5072617;28;20298;-77
2023/12/25 02:20:24;;;;;;;7.22;1.30;;;15.10;72.60;16.10;100288.00;;;;5068367;28;20194;-76
2023/12/25 02:22:54;;;;;;;3.17;0.95;;;15.10;73.00;16.20;100292.00;;;;5088660;28;20218;-76
2023/12/25 02:25:36;;;;;;;6.07;1.67;;;15.10;73.10;16.10;100286.00;;;;5086644;28;20272;-77
2023/12/25 02:28:06;;;;;;;6.35;1.83;;;15.10;73.50;16.20;100288.00;;;;5082397;28;20203;-77
2023/12/25 02:30:34;;;;;;;12.00;1.90;;;15.10;73.50;16.20;100289.00;;;;5067850;28;20198;-77
2023/12/25 02:33:04;;;;;;;16.13;2.17;;;15.10;73.60;16.30;100297.00;;;;5067853;28;20256;-77
2023/12/25 02:35:32;;;;;;;6.25;1.52;;;15.20;73.60;16.30;100295.00;;;;5068270;28;20277;-77
2023/12/25 02:37:59;;;;;;;12.60;1.73;;;15.20;73.80;16.30;100296.00;;;;5070960;28;20195;-76
2023/12/25 02:40:27;;;;;;;9.50;1.45;;;15.20;73.90;16.30;100300.00;;;;5068334;28;20195;-76
2023/12/25 02:42:54;;;;;;;8.52;2.03;;;15.20;73.70;16.40;100305.00;;;;5067048;28;20234;-77
2023/12/25 02:45:23;;;;;;;3.30;0.80;;;15.30;73.80;16.40;100302.00;;;;5070446;28;20710;-77
2023/12/25 02:47:51;;;;;;;4.95;1.10;;;15.30;73.80;16.40;100295.00;;;;5087273;28;20736;-77
2023/12/25 02:50:18;;;;;;;6.35;1.67;;;15.30;73.70;16.40;100310.00;;;;5087164;28;20255;-77
2023/12/25 02:52:46;;;;;;;7.78;1.25;;;15.30;73.70;16.50;100290.00;;;;5079773;28;20207;-77
2023/12/25 02:55:13;;;;;;;4.18;0.88;;;15.40;73.90;16.50;100279.00;;;;5075504;28;20756;-77
2023/12/25 02:57:41;;;;;;;8.13;1.65;;;15.40;73.90;16.50;100281.00;;;;5088076;28;20299;-77
2023/12/25 03:00:10;;;;;;;9.15;1.58;;;15.40;73.70;16.50;100289.00;;;;5086580;28;20674;-77
2023/12/25 03:02:39;;;;;;;7.10;1.67;;;15.40;73.70;16.50;100299.00;;;;5088045;28;20257;-77
2023/12/25 03:05:07;;;;;;;6.38;1.83;;;15.40;73.70;16.50;100302.00;;;;5085981;28;20303;-77
2023/12/25 03:07:35;;;;;;;4.68;1.65;;;15.40;73.60;16.50;100295.00;;;;5078288;28;20611;-77
2023/12/25 03:10:02;;;;;;;8.38;1.33;;;15.40;73.60;16.50;100296.00;;;;5067702;28;20677;-77
2023/12/25 03:12:30;;;;;;;7.35;1.10;;;15.40;73.60;16.50;100310.00;;;;5076914;28;20293;-77
2023/12/25 03:14:57;;;;;;;4.22;1.25;;;15.50;73.60;16.50;100326.00;;;;5075857;28;20780;-77
2023/12/25 03:17:25;;;;;;;6.22;1.30;;;15.50;73.70;16.60;100322.00;;;;5065610;28;20205;-77
2023/12/25 03:19:53;;;;;;;6.45;1.50;;;15.50;73.60;16.60;100323.00;;;;5068867;28;20195;-78
2023/12/25 03:22:21;;;;;;;7.85;1.65;;;15.50;73.60;16.60;100336.00;;;;5078811;28;20241;-77
2023/12/25 03:24:48;;;;;;;5.95;1.30;;;15.50;73.70;16.60;100335.00;;;;5067052;28;20222;-77
2023/12/25 03:27:16;;;;;;;5.53;1.50;;;15.50;74.30;16.60;100330.00;;;;5079658;28;20277;-77
2023/12/25 03:29:43;;;;;;;9.38;1.58;;;15.50;73.50;16.60;100321.00;;;;5079807;28;20228;-77
2023/12/25 03:32:11;;;;;;;4.65;1.15;;;15.50;73.50;16.60;100315.00;;;;5071452;28;20276;-77
2023/12/25 03:34:47;;;;;;;5.50;1.20;;;15.60;73.50;16.50;100332.00;;;;5071485;28;20640;-77
2023/12/25 03:37:16;;;;;;;7.20;1.45;;;15.50;73.50;16.60;100326.00;;;;5072138;28;20689;-77
2023/12/25 03:39:43;;;;;;;8.13;1.65;;;15.60;73.50;16.60;100343.00;;;;5071110;28;20194;-77
2023/12/25 03:42:11;;;;;;;4.57;1.13;;;15.50;73.40;16.60;100343.00;;;;5071975;28;20775;-77
2023/12/25 03:44:38;;;;;;;12.82;2.00;;;15.60;73.50;16.70;100348.00;;;;5071718;28;20258;-77
2023/12/25 03:47:06;;;;;;;5.80;1.55;;;15.60;73.50;16.70;100336.00;;;;5072748;28;20244;-77
2023/12/25 03:49:34;;;;;;;6.38;1.52;;;15.60;73.50;16.70;100335.00;;;;5072018;28;20242;-76
2023/12/25 03:52:02;;;;;;;12.13;1.65;;;15.60;73.50;16.70;100338.00;;;;5071926;28;20606;-77
2023/12/25 03:54:30;;;;;;;7.70;2.05;;;15.60;73.50;16.60;100352.00;;;;5071927;28;20540;-77
2023/12/25 03:56:58;;;;;;;8.15;1.83;;;15.60;73.50;16.60;100357.00;;;;5071990;28;20199;-77
2023/12/25 03:59:25;;;;;;;3.75;1.17;;;15.60;73.60;16.70;100356.00;;;;5071906;28;20195;-77
2023/12/25 04:01:52;;;;;;;6.15;1.58;;;15.60;73.40;16.70;100356.00;;;;5072569;28;20296;-77
2023/12/25 04:04:20;;;;;;;4.40;1.23;;;15.60;73.50;16.70;100335.00;;;;5087302;28;20222;-77
2023/12/25 04:06:47;;;;;;;5.45;1.23;;;15.60;73.40;16.70;100334.00;;;;5080471;28;20199;-77
2023/12/25 04:09:15;;;;;;;5.55;1.35;;;15.60;73.40;16.70;100342.00;;;;5071101;28;20230;-77
2023/12/25 04:11:45;;;;;;;6.57;1.27;;;15.60;73.30;16.70;100343.00;;;;5071006;28;20203;-77
2023/12/25 04:14:13;;;;;;;5.60;1.10;;;15.70;73.50;16.70;100358.00;;;;5071014;28;20191;-77
2023/12/25 04:16:40;;;;;;;5.32;0.82;;;15.70;73.50;16.70;100335.00;;;;5089994;28;20263;-77
2023/12/25 04:19:08;;;;;;;10.35;1.80;;;15.70;73.40;16.80;100339.00;;;;5072146;28;20276;-77
2023/12/25 04:21:35;;;;;;;5.05;1.00;;;15.70;73.40;16.80;100332.00;;;;5070629;28;20195;-76
2023/12/25 04:24:03;;;;;;;8.80;1.33;;;15.70;73.40;16.80;100330.00;;;;5071796;28;20221;-76
2023/12/25 04:26:31;;;;;;;7.72;1.75;;;15.70;73.40;16.80;100333.00;;;;5070176;28;20195;-76
2023/12/25 04:29:00;;;;;;;7.18;1.80;;;15.70;73.30;16.80;100325.00;;;;5081527;28;20264;-76
2023/12/25 04:31:27;;;;;;;6.75;1.90;;;15.70;73.30;16.80;100333.00;;;;5075192;28;20255;-77
2023/12/25 04:33:55;;;;;;;6.80;1.02;;;15.70;73.30;16.80;100330.00;;;;5072804;28;20199;-76
2023/12/25 04:36:22;;;;;;;5.97;1.45;;;15.70;73.30;16.80;100318.00;;;;5072495;28;20207;-76
2023/12/25 04:38:50;;;;;;;5.00;1.40;;;15.70;73.20;16.90;100323.00;;;;5090696;28;20726;-77
2023/12/25 04:41:22;;;;;;;3.50;1.23;;;15.80;73.30;16.90;100331.00;;;;5091123;28;20198;-77
2023/12/25 04:43:50;;;;;;;7.65;1.40;;;15.70;73.20;16.90;100335.00;;;;5077043;28;20218;-77
2023/12/25 04:46:20;;;;;;;9.90;1.60;;;15.70;73.20;16.90;100330.00;;;;5070876;28;20726;-77
2023/12/25 04:48:48;;;;;;;6.70;1.70;;;15.70;73.20;17.00;100331.00;;;;5090613;28;20249;-77
2023/12/25 04:51:15;;;;;;;5.88;0.85;;;15.80;73.30;17.00;100341.00;;;;5091652;28;20243;-77
2023/12/25 04:53:43;;;;;;;8.25;1.52;;;15.70;73.20;17.00;100336.00;;;;5081570;28;20199;-77
2023/12/25 04:56:11;;;;;;;7.30;1.20;;;15.80;73.30;17.10;100331.00;;;;5072626;28;20532;-76
2023/12/25 04:58:39;;;;;;;5.57;1.05;;;15.80;73.30;17.10;100324.00;;;;5071445;28;20199;-76
2023/12/25 05:01:07;;;;;;;8.15;1.50;;;15.80;73.30;17.10;100335.00;;;;5069848;28;20213;-76
2023/12/25 05:03:36;;;;;;;8.90;1.60;;;15.80;73.30;17.20;100324.00;;;;5077998;28;20261;-77
2023/12/25 05:06:05;;;;;;;4.38;1.20;;;15.80;73.30;17.20;100315.00;;;;5070467;28;20229;-76
2023/12/25 05:08:32;;;;;;;4.18;1.00;;;15.80;73.20;17.20;100311.00;;;;5069135;28;20187;-76
2023/12/25 05:11:00;;;;;;;2.25;0.60;;;15.80;73.20;17.20;100312.00;;;;5076420;28;20644;-77
2023/12/25 05:13:30;;;;;;;7.63;1.30;;;15.90;73.10;17.20;100306.00;;;;5091407;28;20234;-77
2023/12/25 05:15:57;;;;;;;2.45;0.70;;;15.80;73.10;17.20;100311.00;;;;5090507;28;20206;-76
2023/12/25 05:18:25;;;;;;;4.00;0.90;;;15.90;73.00;17.20;100320.00;;;;5077409;28;20738;-77
2023/12/25 05:20:53;;;;;;;6.82;1.40;;;15.90;73.00;17.20;100322.00;;;;5082922;28;20660;-76
2023/12/25 05:23:21;;;;;;;5.22;1.25;;;15.80;73.00;17.20;100323.00;;;;5077855;28;20237;-76
2023/12/25 05:25:48;;;;;;;3.05;0.98;;;15.90;73.10;17.20;100336.00;;;;5070822;28;20198;-77
2023/12/25 05:28:16;;;;;;;5.32;1.05;;;15.90;73.10;17.20;100331.00;;;;5077347;28;20199;-77
2023/12/25 05:30:44;;;;;;;5.72;1.35;;;15.90;73.10;17.20;100321.00;;;;5083918;28;20199;-77
2023/12/25 05:33:11;;;;;;;2.25;0.95;;;15.90;73.20;17.20;100315.00;;;;5088737;28;20277;-76
2023/12/25 05:35:39;;;;;;;5.10;1.20;;;15.90;73.10;17.20;100324.00;;;;5069416;28;20210;-76
2023/12/25 05:38:08;;;;;;;4.60;1.30;;;15.90;73.20;17.20;100337.00;;;;5070915;28;20587;-76
2023/12/25 05:40:35;;;;;;;4.63;0.95;;;15.90;73.20;17.20;100336.00;;;;5090057;28;20567;-76
2023/12/25 05:43:03;;;;;;;3.58;0.90;;;15.90;73.10;17.20;100333.00;;;;5075261;28;20284;-76
2023/12/25 05:45:31;;;;;;;2.40;0.70;;;15.90;73.10;17.30;100336.00;;;;5070753;28;20210;-76
2023/12/25 05:47:59;;;;;;;5.60;1.40;;;15.90;73.20;17.30;100331.00;;;;5071501;28;20231;-76
2023/12/25 05:50:26;;;;;;;3.53;0.70;;;15.90;73.10;17.30;100321.00;;;;5069884;28;20567;-76
2023/12/25 05:52:53;;;;;;;4.70;0.93;;;15.90;73.10;17.30;100314.00;;;;5070213;28;20214;-77
2023/12/25 05:55:22;;;;;;;2.67;0.68;;;15.90;73.00;17.30;100335.00;;;;5069707;28;20195;-77
2023/12/25 05:57:50;;;;;;;2.05;0.95;;;15.90;73.00;17.30;100338.00;;;;5068516;28;20242;-76
2023/12/25 06:00:18;;;;;;;2.38;0.88;;;15.90;73.00;17.30;100344.00;;;;5071414;28;20239;-77
2023/12/25 06:02:46;;;;;;;1.60;0.80;;;15.90;73.00;17.30;100338.00;;;;5070755;28;20680;-77
2023/12/25 06:05:13;;;;;;;1.42;0.73;;;15.90;73.00;17.30;100341.00;;;;5069040;28;20696;-77
2023/12/25 06:07:41;;;;;;;4.47;0.52;;;15.90;72.90;17.30;100348.00;;;;5069028;28;20238;-77
2023/12/25 06:10:09;;;;;;;4.07;0.73;;;15.90;72.80;17.30;100346.00;;;;5069191;28;20206;-77
2023/12/25 06:12:38;;;;;;;3.15;0.63;;;15.90;72.80;17.30;100355.00;;;;5069173;28;20194;-77
2023/12/25 06:15:08;;;;;;;1.33;0.35;;;15.90;72.80;17.30;100359.00;;;;5085996;28;20256;-77
2023/12/25 06:17:36;;;;;;;3.72;0.63;;;15.90;72.80;17.30;100355.00;;;;5084085;28;20198;-77
2023/12/25 06:20:04;;;;;;;1.90;0.70;;;15.90;72.70;17.30;100347.00;;;;5075960;28;20198;-77
2023/12/25 06:22:31;;;;;;;0.30;0.20;;;15.90;73.30;17.30;100358.00;;;;5071291;28;20281;-77
2023/12/25 06:24:59;;;;;;;1.27;0.32;;;15.90;72.50;17.30;100348.00;;;;5072510;28;20253;-77
2023/12/25 06:27:26;;;;;;;0.68;0.30;;;15.90;72.40;17.30;100348.00;;;;5087633;28;20206;-77
2023/12/25 06:29:55;;;;;;;8.43;0.60;;;15.80;72.20;17.20;100355.00;;;;5070092;28;20278;-77
2023/12/25 06:32:22;;;;;;;1.85;0.20;;;15.80;72.20;17.20;100361.00;;;;5077296;28;20206;-77
2023/12/25 06:34:50;;;;;;;1.10;0.43;;;15.80;72.10;17.20;100372.00;;;;5084540;28;20295;-77
2023/12/25 06:37:17;;;;;;;3.60;0.30;;;15.70;72.00;17.20;100366.00;;;;5070207;28;20203;-77
2023/12/25 06:39:44;;;;;;;2.13;0.50;;;15.70;72.60;17.10;100364.00;;;;5072943;28;20231;-77
2023/12/25 06:42:12;;;;;;;0.30;0.20;;;15.70;71.80;17.10;100353.00;;;;5084760;28;20728;-77
2023/12/25 06:44:39;;;;;;;1.38;0.30;;;15.70;71.80;17.10;100359.00;;;;5084810;28;20233;-77
2023/12/25 06:47:08;;;;;;;2.65;0.50;;;15.70;71.80;17.00;100364.00;;;;5067626;28;20730;-77
2023/12/25 06:49:36;;;;;;;1.10;0.20;;;15.60;71.70;17.00;100362.00;;;;5068829;28;20199;-77
2023/12/25 06:52:03;;;;;;;0.95;0.30;;;15.60;71.70;17.00;100375.00;;;;5068871;28;20377;-77
2023/12/25 06:54:31;;;;;;;0.98;0.05;;;15.50;71.60;17.00;100368.00;;;;5071564;28;20284;-77
2023/12/25 06:56:58;;;;;;;1.17;0.63;;;15.50;71.60;17.00;100358.00;;;;5067560;28;20195;-77
2023/12/25 06:59:25;;;;;;;1.17;0.30;;;15.50;71.60;17.00;100361.00;;;;5075920;28;20267;-77
2023/12/25 07:01:54;;;;;;;0.47;0.20;;;15.50;71.60;16.90;100364.00;;;;5087470;28;20249;-77
2023/12/25 07:04:23;;;;;;;2.63;0.30;;;15.50;71.70;16.90;100373.00;;;;5090630;28;20225;-77
2023/12/25 07:06:51;;;;;;;0.60;0.50;;;15.40;72.30;16.90;100381.00;;;;5091255;28;20201;-78
2023/12/25 07:09:20;;;;;;;2.08;0.13;;;15.40;71.60;16.90;100383.00;;;;5080560;28;20206;-77
2023/12/25 07:11:47;;;;;;;2.17;0.30;;;15.40;71.70;16.90;100388.00;;;;5090220;28;20263;-77
2023/12/25 07:14:15;;;;;;;2.88;0.30;;;15.40;72.30;16.90;100392.00;;;;5091610;28;20198;-77
2023/12/25 07:16:42;;;;;;;2.03;0.55;;;15.40;71.70;16.80;100393.00;;;;5091219;28;20202;-77
2023/12/25 07:19:10;;;;;;;1.10;0.20;;;15.40;71.70;16.80;100387.00;;;;5091782;28;20203;-77
2023/12/25 07:21:39;;;;;;;1.00;0.25;;;15.40;71.70;16.80;100389.00;;;;5092652;28;20239;-77
2023/12/25 07:24:08;;;;;;;1.70;0.38;;;15.30;71.60;16.80;100398.00;;;;5092326;28;20304;-77
2023/12/25 07:26:35;;;;;;;1.95;0.73;;;15.30;71.60;16.80;100395.00;;;;5080523;28;20209;-77
2023/12/25 07:29:03;;;;;;;1.88;0.40;;;15.30;71.60;16.80;100392.00;;;;5077474;28;20226;-77
2023/12/25 07:31:30;;;;;;;3.50;0.40;;;15.30;71.60;16.80;100403.00;;;;5073490;28;20251;-78
2023/12/25 07:33:58;;;;;;;2.60;0.45;;;15.30;71.60;16.80;100403.00;;;;5083900;28;20234;-77
2023/12/25 07:36:25;;;;;;;1.42;0.35;;;15.30;71.60;16.80;100414.00;;;;5072481;28;20199;-77
2023/12/25 07:38:54;;;;;;;3.80;0.75;;;15.30;71.60;16.80;100410.00;;;;5072749;28;20195;-77
2023/12/25 07:41:24;;;;;;;2.00;0.30;;;15.30;71.60;16.80;100411.00;;;;5074729;28;20227;-78
2023/12/25 07:43:51;;;;;;;1.30;0.30;;;15.30;71.60;16.80;100416.00;;;;5072358;28;20207;-77
2023/12/25 07:46:19;;;;;;;1.17;0.40;;;15.30;71.60;16.80;100413.00;;;;5073225;28;20222;-77
2023/12/25 07:48:46;;;;;;;3.45;0.47;;;15.30;71.50;16.80;100421.00;;;;5090639;28;20249;-77
2023/12/25 07:51:14;;;;;;;0.65;0.40;;;15.30;71.60;16.80;100418.00;;;;5091228;28;20194;-77
2023/12/25 07:53:41;;;;;;;5.13;0.38;;;15.30;71.60;16.80;100423.00;;;;5085236;28;20264;-78
2023/12/25 07:56:10;;;;;;;2.45;0.65;;;15.30;71.60;16.80;100436.00;;;;5071839;28;20238;-78
2023/12/25 07:58:37;;;;;;;1.83;0.40;;;15.30;72.30;16.80;100432.00;;;;5073082;28;20299;-78
2023/12/25 08:01:05;;;;;;;2.63;0.88;;;15.30;71.60;16.80;100438.00;;;;5083672;28;20646;-77
2023/12/25 08:03:32;;;;;;;2.47;0.47;;;15.30;71.60;16.80;100432.00;;;;5071891;28;20206;-77
2023/12/25 08:06:00;;;;;;;1.92;0.68;;;15.30;71.60;16.80;100435.00;;;;5073670;28;20618;-78
2023/12/25 08:08:27;;;;;;;3.08;0.55;;;15.30;71.60;16.80;100430.00;;;;5090672;28;20730;-78
2023/12/25 08:10:55;;;;;;;1.52;0.57;;;15.30;71.60;16.80;100429.00;;;;5085675;28;20759;-78
2023/12/25 08:13:23;;;;;;;2.47;0.30;;;15.30;71.60;16.80;100426.00;;;;5080539;28;20540;-77
2023/12/25 08:15:51;;;;;;;2.97;0.40;;;15.30;71.60;16.80;100435.00;;;;5070592;28;20233;-77
2023/12/25 08:18:18;;;;;;;2.97;0.40;;;15.30;71.60;16.80;100448.00;;;;5080877;28;20198;-77
2023/12/25 08:20:46;;;;;;;1.30;0.47;;;15.30;71.60;16.80;100439.00;;;;5091265;28;20221;-77
2023/12/25 08:23:13;;;;;;;1.77;0.47;;;15.30;71.60;16.80;100449.00;;;;5086997;28;20251;-78
2023/12/25 08:25:41;;;;;;;1.52;0.43;;;15.30;71.60;16.80;100459.00;;;;5080094;28;20314;-78
2023/12/25 08:28:08;;;;;;;2.58;0.50;;;15.30;71.70;16.80;100463.00;;;;5075436;28;20252;-78
2023/12/25 08:30:37;;;;;;;5.10;0.70;;;15.30;71.70;16.80;100467.00;;;;5081928;28;20230;-77
2023/12/25 08:33:05;;;;;;;1.83;0.30;;;15.30;71.70;16.90;100462.00;;;;5074078;28;20218;-77
2023/12/25 08:35:32;;;;;;;2.38;0.30;;;15.30;71.70;16.90;100465.00;;;;5075410;28;20234;-78
2023/12/25 08:38:00;;;;;;;2.35;0.45;;;15.30;71.70;16.90;100457.00;;;;5080293;28;20608;-78
2023/12/25 08:40:27;;;;;;;1.65;0.38;;;15.30;71.70;17.00;100469.00;;;;5071012;28;20632;-78
2023/12/25 08:42:55;;;;;;;1.60;0.55;;;15.40;71.80;17.00;100465.00;;;;5089955;28;20331;-78
2023/12/25 08:45:23;;;;;;;1.25;0.40;;;15.40;71.80;17.00;100479.00;;;;5076439;28;20225;-75
2023/12/25 08:47:52;;;;;;;1.85;0.55;;;15.40;71.80;17.00;100484.00;;;;5069287;28;20219;-75
2023/12/25 08:50:20;;;;;;;1.58;0.30;;;15.40;71.70;17.10;100481.00;;;;5079433;28;20195;-75
2023/12/25 08:52:47;;;;;;;1.88;0.50;;;15.40;71.70;17.10;100485.00;;;;5074474;28;20656;-75
2023/12/25 08:55:14;;;;;;;2.28;0.30;;;15.50;71.80;17.10;100481.00;;;;5074998;28;20202;-76
2023/12/25 08:57:41;;;;;;;2.65;0.47;;;15.40;71.80;17.10;100482.00;;;;5073617;28;20294;-76
2023/12/25 09:00:10;;;;;;;1.17;0.68;;;15.40;71.70;17.10;100485.00;;;;5072328;28;20698;-76
2023/12/25 09:02:37;;;;;;;1.80;0.80;;;15.50;71.70;17.10;100489.00;;;;5081581;28;20495;-76
2023/12/25 09:05:07;;;;;;;1.10;0.50;;;15.50;71.70;17.10;100488.00;;;;5083116;28;20703;-76
2023/12/25 09:07:34;;;;;;;2.03;0.50;;;15.50;71.60;17.10;100481.00;;;;5071869;28;20653;-76
2023/12/25 09:10:04;;;;;;;1.60;0.70;;;15.50;71.60;17.10;100481.00;;;;5083924;28;20321;-76
2023/12/25 09:12:31;;;;;;;0.60;0.45;;;15.50;71.60;17.10;100486.00;;;;5084999;28;20199;-76
2023/12/25 09:14:59;;;;;;;1.23;0.70;;;15.50;72.30;17.20;100492.00;;;;5069104;28;20538;-76
2023/12/25 09:17:26;;;;;;;1.27;0.30;;;15.50;71.70;17.20;100489.00;;;;5069878;28;20281;-76
2023/12/25 09:19:53;;;;;;;0.88;0.22;;;15.50;71.80;17.20;100481.00;;;;5072117;28;20191;-76
2023/12/25 09:22:24;;;;;;;1.42;0.38;;;15.50;71.80;17.20;100486.00;;;;5076849;28;20210;-76
2023/12/25 09:24:52;;;;;;;1.15;0.10;;;15.50;71.80;17.20;100491.00;;;;5075500;28;20291;-76
2023/12/25 09:27:19;;;;;;;1.02;0.28;;;15.50;71.80;17.20;100510.00;;;;5078779;28;20195;-76
2023/12/25 09:29:46;;;;;;;2.63;0.40;;;15.50;71.80;17.20;100509.00;;;;5074259;28;20187;-76
2023/12/25 09:32:13;;;;;;;1.60;0.20;;;15.60;71.90;17.20;100506.00;;;;5088045;28;20735;-76
2023/12/25 09:34:40;;;;;;;0.93;0.40;;;15.60;71.80;17.20;100515.00;;;;5078823;28;20213;-76
2023/12/25 09:37:07;;;;;;;2.05;0.40;;;15.60;71.70;17.20;100529.00;;;;5089528;28;20198;-76
2023/12/25 09:39:35;;;;;;;1.58;0.73;;;15.60;71.70;17.20;100533.00;;;;5086012;28;20194;-76
2023/12/25 09:42:04;;;;;;;0.75;0.22;;;15.60;71.70;17.20;100517.00;;;;5079959;28;20226;-76
2023/12/25 09:44:32;;;;;;;3.25;0.60;;;15.60;71.70;17.20;100523.00;;;;5068707;28;20294;-77
2023/12/25 09:47:00;;;;;;;0.68;0.20;;;15.60;71.70;17.30;100531.00;;;;5069719;28;20993;-76
2023/12/25 09:49:29;;;;;;;1.27;0.20;;;15.60;71.70;17.20;100520.00;;;;5080914;28;20224;-76
2023/12/25 09:51:58;;;;;;;0.82;0.25;;;15.60;71.70;17.30;100522.00;;;;5088881;28;20198;-76
2023/12/25 09:54:25;;;;;;;0.93;0.28;;;15.70;71.80;17.30;100504.00;;;;5086584;28;20206;-76
2023/12/25 09:56:56;;;;;;;1.67;0.28;;;15.70;71.80;17.30;100508.00;;;;5075892;28;20195;-76
2023/12/25 09:59:23;;;;;;;1.13;0.40;;;15.70;71.80;17.40;100515.00;;;;5070064;28;20583;-76
2023/12/25 10:01:51;;;;;;;1.13;0.30;;;15.70;71.80;17.40;100514.00;;;;5087252;28;20203;-77
2023/12/25 10:04:19;;;;;;;1.73;0.40;;;15.70;71.80;17.40;100514.00;;;;5081029;28;20215;-76
2023/12/25 10:06:47;;;;;;;1.33;0.20;;;15.70;71.70;17.40;100514.00;;;;5067126;28;20573;-76
2023/12/25 10:09:14;;;;;;;0.82;0.30;;;15.80;71.70;17.40;100515.00;;;;5066961;28;20665;-76
2023/12/25 10:11:41;;;;;;;2.85;0.40;;;15.80;71.60;17.40;100517.00;;;;5068430;28;20787;-76
2023/12/25 10:14:09;;;;;;;1.90;0.38;;;15.80;71.50;17.40;100509.00;;;;5068492;28;20207;-76
2023/12/25 10:16:36;;;;;;;2.35;0.30;;;15.80;71.50;17.40;100520.00;;;;5075709;28;20195;-77
2023/12/25 10:19:03;;;;;;;1.42;0.25;;;15.80;71.40;17.40;100536.00;;;;5069285;28;20206;-76
2023/12/25 10:21:43;;;;;;;1.02;0.30;;;15.80;71.40;17.30;100539.00;;;;5076703;28;20198;-77
2023/12/25 10:24:15;;;;;;;2.35;0.57;;;15.80;71.20;17.40;100547.00;;;;5069190;28;20279;-77
2023/12/25 10:26:44;;;;;;;1.30;0.30;;;15.80;71.20;17.40;100552.00;;;;5067397;28;20273;-77
2023/12/25 10:29:13;;;;;;;1.13;0.50;;;15.80;71.30;17.40;100552.00;;;;5068099;28;20199;-76
2023/12/25 10:31:43;;;;;;;1.52;0.35;;;15.80;71.30;17.40;100543.00;;;;5071922;28;20669;-76
2023/12/25 10:34:11;;;;;;;1.73;0.20;;;15.90;71.30;17.50;100530.00;;;;5069827;28;20227;-76
2023/12/25 10:36:39;;;;;;;0.38;0.17;;;15.90;71.20;17.40;100544.00;;;;5068197;28;20214;-77
2023/12/25 10:39:07;;;;;;;0.80;0.32;;;15.90;71.20;17.40;100528.00;;;;5076434;28;20199;-77
2023/12/25 10:41:35;;;;;;;0.90;0.30;;;15.90;71.20;17.50;100532.00;;;;5077411;28;20279;-76
2023/12/25 10:44:04;;;;;;;1.80;0.43;;;15.90;71.10;17.40;100522.00;;;;5080773;28;20203;-76
2023/12/25 10:46:36;;;;;;;2.28;0.60;;;15.90;71.00;17.50;100516.00;;;;5070145;28;20234;-77
2023/12/25 10:49:06;;;;;;;2.00;0.50;;;15.90;71.00;17.50;100513.00;;;;5070324;28;20299;-77
2023/12/25 10:51:36;;;;;;;1.10;0.43;;;15.90;70.90;17.50;100514.00;;;;5085499;28;20216;-77